Wetterdaten: Woche 08.02.16 - 14.02.16 (KW6)
Datum Zeit Temp. A. Feuchte A. Luftdruck Regen Wind Richtung Sonnenschein ET UV Solar Taupunkt Windchill Windben Empfang
08.02.2016 00:00 6,1 C 86 % 1013,4 hPa 0,0 l/m 7,4 km/h (2 Bft) W-SW 0,00 h 0,000 mm 0,0 UV-I 0 W/m 3,8 C 5,1 C 12,5 km/h (3 Bft) 98,20 %
08.02.2016 01:00 6,6 C 81 % 1013,7 hPa 0,0 l/m 11,6 km/h (2 Bft) W-SW 0,00 h 0,025 mm 0,0 UV-I 0 W/m 3,6 C 2,9 C 18,9 km/h (3 Bft) 97,87 %
08.02.2016 02:00 6,2 C 82 % 1014,0 hPa 0,0 l/m 9,0 km/h (2 Bft) W-SW 0,00 h 0,026 mm 0,0 UV-I 0 W/m 3,4 C 4,2 C 16,2 km/h (3 Bft) 98,64 %
08.02.2016 03:00 5,4 C 87 % 1014,1 hPa 0,0 l/m 11,1 km/h (2 Bft) SW 0,00 h 0,025 mm 0,0 UV-I 0 W/m 3,4 C 1,7 C 18,4 km/h (3 Bft) 98,16 %
08.02.2016 04:00 5,0 C 88 % 1013,7 hPa 0,0 l/m 12,0 km/h (2 Bft) S-SW 0,00 h 0,026 mm 0,0 UV-I 0 W/m 3,1 C 0,8 C 21,2 km/h (4 Bft) 98,49 %
08.02.2016 05:00 5,2 C 84 % 1013,0 hPa 0,0 l/m 10,5 km/h (2 Bft) S-SO 0,00 h 0,025 mm 0,0 UV-I 0 W/m 2,7 C 1,9 C 20,0 km/h (4 Bft) 98,16 %
08.02.2016 06:00 5,3 C 81 % 1012,0 hPa 0,0 l/m 6,8 km/h (2 Bft) S-SO 0,00 h 0,025 mm 0,0 UV-I 0 W/m 2,3 C 4,6 C 15,6 km/h (3 Bft) 98,29 %
08.02.2016 07:00 5,2 C 81 % 1011,6 hPa 0,0 l/m 3,5 km/h (1 Bft) S-SO 0,00 h 0,026 mm 0,0 UV-I 6 W/m 2,2 C 5,2 C 7,2 km/h (2 Bft) 97,37 %
08.02.2016 08:00 4,8 C 85 % 1011,3 hPa 0,0 l/m 5,8 km/h (2 Bft) O-NO 0,00 h 0,000 mm 0,0 UV-I 44 W/m 2,4 C 4,5 C 9,4 km/h (2 Bft) 98,58 %
08.02.2016 09:00 6,0 C 82 % 1011,1 hPa 0,0 l/m 9,2 km/h (2 Bft) O-NO 0,92 h 0,025 mm 0,5 UV-I 254 W/m 3,1 C 3,7 C 14,4 km/h (3 Bft) 97,71 %
08.02.2016 10:00 7,8 C 75 % 1010,2 hPa 0,0 l/m 11,4 km/h (2 Bft) O 1,00 h 0,127 mm 1,0 UV-I 355 W/m 3,6 C 4,4 C 18,7 km/h (3 Bft) 97,93 %
08.02.2016 11:00 9,4 C 70 % 1009,4 hPa 0,0 l/m 8,4 km/h (2 Bft) O-NO 1,00 h 0,178 mm 1,3 UV-I 427 W/m 4,1 C 7,9 C 15,4 km/h (3 Bft) 98,77 %
08.02.2016 12:00 10,4 C 66 % 1007,8 hPa 0,0 l/m 11,8 km/h (2 Bft) O-NO 1,00 h 0,229 mm 1,3 UV-I 356 W/m 4,3 C 7,3 C 18,5 km/h (3 Bft) 97,93 %
08.02.2016 13:00 11,3 C 64 % 1006,1 hPa 0,0 l/m 10,9 km/h (2 Bft) O-SO 1,00 h 0,203 mm 1,1 UV-I 341 W/m 4,7 C 8,7 C 19,8 km/h (4 Bft) 98,31 %
08.02.2016 14:00 12,1 C 60 % 1005,2 hPa 0,0 l/m 6,0 km/h (2 Bft) O-NO 0,75 h 0,203 mm 0,7 UV-I 243 W/m 4,4 C 11,6 C 11,1 km/h (2 Bft) 98,58 %
08.02.2016 15:00 11,4 C 67 % 1004,9 hPa 0,0 l/m 4,6 km/h (1 Bft) NO 0,42 h 0,152 mm 0,0 UV-I 116 W/m 5,4 C 11,4 C 8,4 km/h (2 Bft) 97,31 %
08.02.2016 16:00 10,4 C 70 % 1004,1 hPa 0,0 l/m 7,8 km/h (2 Bft) O 0,17 h 0,077 mm 0,0 UV-I 42 W/m 5,1 C 9,4 C 13,4 km/h (3 Bft) 99,59 %
08.02.2016 17:00 8,7 C 77 % 1003,3 hPa 0,0 l/m 7,1 km/h (2 Bft) NO 0,00 h 0,050 mm 0,0 UV-I 5 W/m 4,8 C 7,4 C 12,7 km/h (3 Bft) 97,92 %
08.02.2016 18:00 7,4 C 81 % 1003,7 hPa 0,0 l/m 3,6 km/h (1 Bft) N-NO 0,00 h 0,026 mm 0,0 UV-I 0 W/m 4,4 C 7,2 C 7,4 km/h (2 Bft) 99,51 %
08.02.2016 19:00 6,2 C 85 % 1004,3 hPa 0,0 l/m 2,4 km/h (1 Bft) N-NO 0,00 h 0,000 mm 0,0 UV-I 0 W/m 3,8 C 6,2 C 5,9 km/h (2 Bft) 97,75 %
08.02.2016 20:00 5,9 C 87 % 1005,6 hPa 0,0 l/m 3,6 km/h (1 Bft) S-SO 0,00 h 0,000 mm 0,0 UV-I 0 W/m 3,9 C 5,8 C 7,2 km/h (2 Bft) 99,23 %
08.02.2016 21:00 6,2 C 87 % 1006,5 hPa 0,0 l/m 4,8 km/h (1 Bft) S-SO 0,00 h 0,000 mm 0,0 UV-I 0 W/m 4,1 C 5,9 C 10,6 km/h (2 Bft) 98,24 %
08.02.2016 22:00 6,8 C 86 % 1007,6 hPa 0,2 l/m 10,0 km/h (2 Bft) S-SW 0,00 h 0,000 mm 0,0 UV-I 0 W/m 4,5 C 4,5 C 19,2 km/h (3 Bft) 98,94 %
08.02.2016 23:00 5,9 C 89 % 1009,1 hPa 0,4 l/m 7,6 km/h (2 Bft) W 0,00 h 0,025 mm 0,0 UV-I 0 W/m 4,2 C 4,6 C 13,6 km/h (3 Bft) 97,78 %
09.02.2016 00:00 4,9 C 94 % 1009,1 hPa 0,0 l/m 3,8 km/h (1 Bft) SO 0,00 h 0,000 mm 0,0 UV-I 0 W/m 4,0 C 4,9 C 5,2 km/h (1 Bft) 98,44 %
09.02.2016 01:00 4,6 C 96 % 1008,4 hPa 1,0 l/m 5,0 km/h (1 Bft) O-SO 0,00 h 0,000 mm 0,0 UV-I 0 W/m 4,0 C 3,8 C 7,4 km/h (2 Bft) 98,64 %
09.02.2016 02:00 5,1 C 96 % 1010,1 hPa 2,2 l/m 4,5 km/h (1 Bft) S 0,00 h 0,000 mm 0,0 UV-I 0 W/m 4,5 C 4,6 C 6,9 km/h (2 Bft) 98,15 %
09.02.2016 03:00 5,8 C 94 % 1009,9 hPa 0,0 l/m 10,1 km/h (2 Bft) S-SW 0,00 h 0,000 mm 0,0 UV-I 0 W/m 4,9 C 3,0 C 15,3 km/h (3 Bft) 98,15 %
09.02.2016 04:00 5,7 C 93 % 1009,3 hPa 0,0 l/m 3,6 km/h (1 Bft) S-SO 0,00 h 0,000 mm 0,0 UV-I 0 W/m 4,6 C 5,5 C 6,3 km/h (2 Bft) 98,68 %
09.02.2016 05:00 6,6 C 89 % 1009,3 hPa 0,0 l/m 13,2 km/h (3 Bft) SW 0,00 h 0,000 mm 0,0 UV-I 0 W/m 5,0 C 2,1 C 19,3 km/h (3 Bft) 99,04 %
09.02.2016 06:00 6,9 C 85 % 1008,5 hPa 0,0 l/m 13,6 km/h (3 Bft) S-SW 0,00 h 0,025 mm 0,0 UV-I 0 W/m 4,6 C 2,2 C 19,3 km/h (3 Bft) 97,70 %
09.02.2016 07:00 6,2 C 88 % 1008,2 hPa 0,0 l/m 4,6 km/h (1 Bft) S-SO 0,28 h 0,026 mm 0,0 UV-I 24 W/m 4,4 C 6,1 C 8,4 km/h (2 Bft) 99,24 %
09.02.2016 08:00 7,5 C 83 % 1007,4 hPa 0,0 l/m 6,1 km/h (2 Bft) S-SO 0,40 h 0,025 mm 0,0 UV-I 94 W/m 4,7 C 7,1 C 10,1 km/h (2 Bft) 97,51 %
09.02.2016 09:00 8,0 C 83 % 1006,3 hPa 0,0 l/m 6,8 km/h (2 Bft) O-SO 0,32 h 0,051 mm 0,5 UV-I 141 W/m 5,3 C 7,1 C 9,9 km/h (2 Bft) 98,25 %
09.02.2016 10:00 9,2 C 80 % 1005,2 hPa 0,0 l/m 10,8 km/h (2 Bft) O-NO 0,85 h 0,076 mm 0,8 UV-I 332 W/m 6,0 C 6,4 C 14,8 km/h (3 Bft) 98,65 %
09.02.2016 11:00 10,4 C 74 % 1003,7 hPa 0,0 l/m 15,6 km/h (3 Bft) O-NO 0,85 h 0,178 mm 1,0 UV-I 332 W/m 6,0 C 5,4 C 20,7 km/h (4 Bft) 97,43 %
09.02.2016 12:00 11,3 C 71 % 1001,5 hPa 0,0 l/m 19,2 km/h (3 Bft) O-NO 0,75 h 0,203 mm 1,1 UV-I 382 W/m 6,3 C 5,2 C 24,6 km/h (4 Bft) 98,15 %
09.02.2016 13:00 12,1 C 70 % 998,7 hPa 0,0 l/m 17,5 km/h (3 Bft) O-NO 0,52 h 0,254 mm 0,9 UV-I 315 W/m 6,7 C 6,9 C 22,8 km/h (4 Bft) 97,19 %
09.02.2016 14:00 12,0 C 73 % 996,9 hPa 0,0 l/m 10,9 km/h (2 Bft) NO 0,00 h 0,203 mm 0,4 UV-I 141 W/m 7,2 C 9,4 C 16,0 km/h (3 Bft) 99,66 %
09.02.2016 15:00 11,5 C 73 % 994,4 hPa 0,0 l/m 8,3 km/h (2 Bft) O-NO 0,00 h 0,102 mm 0,0 UV-I 89 W/m 6,8 C 10,1 C 11,6 km/h (2 Bft) 98,67 %
09.02.2016 16:00 11,0 C 73 % 993,1 hPa 0,0 l/m 7,7 km/h (2 Bft) O-NO 0,00 h 0,076 mm 0,0 UV-I 30 W/m 6,2 C 10,0 C 10,3 km/h (2 Bft) 98,85 %
09.02.2016 17:00 9,6 C 77 % 992,0 hPa 0,0 l/m 4,2 km/h (1 Bft) O 0,00 h 0,051 mm 0,0 UV-I 4 W/m 5,7 C 9,4 C 6,6 km/h (2 Bft) 98,11 %
09.02.2016 18:00 9,3 C 77 % 991,3 hPa 0,0 l/m 4,3 km/h (1 Bft) O-NO 0,00 h 0,025 mm 0,0 UV-I 0 W/m 5,5 C 9,0 C 5,9 km/h (2 Bft) 99,17 %
09.02.2016 19:00 8,6 C 79 % 990,6 hPa 0,0 l/m 2,4 km/h (1 Bft) O-NO 0,00 h 0,026 mm 0,0 UV-I 0 W/m 5,1 C 8,5 C 4,1 km/h (1 Bft) 97,49 %
09.02.2016 20:00 8,1 C 80 % 990,3 hPa 0,0 l/m 1,5 km/h (1 Bft) NO 0,00 h 0,000 mm 0,0 UV-I 0 W/m 4,9 C 8,1 C 2,4 km/h (1 Bft) 99,50 %
09.02.2016 21:00 7,7 C 80 % 989,3 hPa 0,0 l/m 2,3 km/h (1 Bft) NO 0,00 h 0,000 mm 0,0 UV-I 0 W/m 4,5 C 7,6 C 3,9 km/h (1 Bft) 97,57 %
09.02.2016 22:00 12,5 C 48 % 989,0 hPa 0,0 l/m 8,5 km/h (2 Bft) S-SO 0,00 h 0,000 mm 0,0 UV-I 0 W/m 1,8 C 11,1 C 13,7 km/h (3 Bft) 99,62 %
09.02.2016 23:00 12,1 C 53 % 990,3 hPa 0,4 l/m 15,0 km/h (3 Bft) W 0,00 h 0,051 mm 0,0 UV-I 0 W/m 2,7 C 8,3 C 22,8 km/h (4 Bft) 98,03 %
10.02.2016 00:00 5,6 C 85 % 994,2 hPa 1,2 l/m 22,0 km/h (4 Bft) W 0,00 h 0,000 mm 0,0 UV-I 0 W/m 3,3 C -2,8 C 32,2 km/h (5 Bft) 99,10 %
10.02.2016 01:00 4,3 C 89 % 994,7 hPa 1,6 l/m 16,3 km/h (3 Bft) W-SW 0,00 h 0,025 mm 0,0 UV-I 0 W/m 2,6 C -2,2 C 23,4 km/h (4 Bft) 98,11 %
10.02.2016 02:00 3,2 C 92 % 994,4 hPa 1,2 l/m 12,6 km/h (3 Bft) S-SW 0,00 h 0,026 mm 0,0 UV-I 0 W/m 2,0 C -1,5 C 18,0 km/h (3 Bft) 98,83 %
10.02.2016 03:00 2,4 C 93 % 994,0 hPa 1,8 l/m 13,1 km/h (3 Bft) SW 0,00 h 0,000 mm 0,0 UV-I 0 W/m 1,4 C -2,7 C 18,9 km/h (3 Bft) 98,08 %
10.02.2016 04:00 2,3 C 93 % 994,0 hPa 2,6 l/m 18,3 km/h (3 Bft) SW 0,00 h 0,000 mm 0,0 UV-I 0 W/m 1,3 C -5,7 C 26,1 km/h (4 Bft) 98,67 %
10.02.2016 05:00 2,1 C 93 % 994,1 hPa 0,6 l/m 17,6 km/h (3 Bft) W-SW 0,00 h 0,000 mm 0,0 UV-I 0 W/m 1,0 C -5,7 C 24,4 km/h (4 Bft) 98,10 %
10.02.2016 06:00 2,6 C 90 % 994,1 hPa 0,2 l/m 18,1 km/h (3 Bft) W-SW 0,00 h 0,000 mm 0,0 UV-I 0 W/m 1,0 C -5,4 C 25,0 km/h (4 Bft) 97,87 %
10.02.2016 07:00 2,2 C 92 % 994,4 hPa 0,4 l/m 16,4 km/h (3 Bft) W-SW 0,00 h 0,025 mm 0,0 UV-I 6 W/m 0,9 C -5,0 C 22,4 km/h (4 Bft) 98,74 %
10.02.2016 08:00 1,8 C 94 % 994,8 hPa 0,2 l/m 13,1 km/h (3 Bft) W-SW 0,00 h 0,000 mm 0,0 UV-I 18 W/m 1,0 C -3,6 C 18,4 km/h (3 Bft) 97,58 %
10.02.2016 09:00 1,9 C 95 % 995,3 hPa 0,2 l/m 12,9 km/h (3 Bft) W-SW 0,00 h 0,026 mm 0,0 UV-I 34 W/m 1,1 C -3,3 C 18,1 km/h (3 Bft) 98,79 %
10.02.2016 10:00 2,2 C 94 % 995,9 hPa 0,0 l/m 14,3 km/h (3 Bft) W-SW 0,00 h 0,025 mm 0,0 UV-I 58 W/m 1,3 C -3,7 C 20,3 km/h (4 Bft) 98,04 %
10.02.2016 11:00 2,4 C 92 % 996,4 hPa 0,0 l/m 17,0 km/h (3 Bft) W 0,00 h 0,025 mm 0,0 UV-I 77 W/m 1,1 C -5,0 C 24,1 km/h (4 Bft) 99,34 %
10.02.2016 12:00 2,6 C 88 % 996,7 hPa 0,0 l/m 16,1 km/h (3 Bft) W 0,00 h 0,051 mm 0,0 UV-I 90 W/m 0,9 C -4,3 C 23,2 km/h (4 Bft) 97,69 %
10.02.2016 13:00 3,4 C 84 % 997,0 hPa 0,0 l/m 16,3 km/h (3 Bft) W-SW 0,00 h 0,051 mm 0,5 UV-I 144 W/m 1,0 C -3,4 C 23,0 km/h (4 Bft) 99,24 %
10.02.2016 14:00 3,6 C 80 % 997,4 hPa 0,0 l/m 16,4 km/h (3 Bft) W 0,08 h 0,076 mm 0,0 UV-I 148 W/m 0,5 C -3,1 C 24,8 km/h (4 Bft) 97,80 %
10.02.2016 15:00 3,6 C 84 % 997,8 hPa 0,0 l/m 13,9 km/h (3 Bft) W-SW 0,17 h 0,076 mm 0,0 UV-I 108 W/m 1,1 C -1,9 C 19,2 km/h (3 Bft) 99,44 %
10.02.2016 16:00 3,2 C 85 % 997,9 hPa 0,0 l/m 10,7 km/h (2 Bft) SW 0,00 h 0,051 mm 0,0 UV-I 15 W/m 1,0 C -0,2 C 15,6 km/h (3 Bft) 97,51 %
10.02.2016 17:00 3,1 C 84 % 998,3 hPa 0,0 l/m 15,8 km/h (3 Bft) SW 0,00 h 0,026 mm 0,0 UV-I 6 W/m 0,8 C -3,5 C 21,7 km/h (4 Bft) 99,21 %
10.02.2016 18:00 3,2 C 80 % 999,0 hPa 0,0 l/m 19,1 km/h (3 Bft) W-SW 0,00 h 0,025 mm 0,0 UV-I 0 W/m 0,2 C -5,0 C 26,6 km/h (4 Bft) 97,92 %
10.02.2016 19:00 3,3 C 78 % 999,7 hPa 0,0 l/m 20,2 km/h (4 Bft) W-SW 0,00 h 0,025 mm 0,0 UV-I 0 W/m -0,2 C -5,3 C 28,4 km/h (4 Bft) 99,38 %
10.02.2016 20:00 3,2 C 78 % 1000,3 hPa 0,0 l/m 23,1 km/h (4 Bft) W-SW 0,00 h 0,026 mm 0,0 UV-I 0 W/m -0,3 C -6,6 C 32,1 km/h (5 Bft) 97,90 %
10.02.2016 21:00 2,0 C 88 % 1001,0 hPa 0,0 l/m 21,7 km/h (4 Bft) W-SW 0,00 h 0,051 mm 0,0 UV-I 0 W/m 0,2 C -7,6 C 31,0 km/h (5 Bft) 99,20 %
10.02.2016 22:00 1,5 C 92 % 1001,5 hPa 0,2 l/m 18,8 km/h (3 Bft) SW 0,00 h 0,025 mm 0,0 UV-I 0 W/m 0,3 C -7,1 C 27,1 km/h (4 Bft) 98,02 %
10.02.2016 23:00 2,0 C 87 % 1002,1 hPa 0,0 l/m 22,3 km/h (4 Bft) SW 0,00 h 0,025 mm 0,0 UV-I 0 W/m 0,0 C -8,0 C 31,2 km/h (5 Bft) 99,45 %
11.02.2016 00:00 2,3 C 81 % 1002,4 hPa 0,0 l/m 22,2 km/h (4 Bft) W-SW 0,00 h 0,000 mm 0,0 UV-I 0 W/m -0,5 C -7,5 C 31,2 km/h (5 Bft) 97,76 %
11.02.2016 01:00 2,8 C 75 % 1002,8 hPa 0,0 l/m 23,0 km/h (4 Bft) W-SW 0,00 h 0,025 mm 0,0 UV-I 0 W/m -1,1 C -7,1 C 32,8 km/h (5 Bft) 98,12 %
11.02.2016 02:00 3,2 C 71 % 1003,6 hPa 0,0 l/m 22,6 km/h (4 Bft) W-SW 0,00 h 0,051 mm 0,0 UV-I 0 W/m -1,5 C -6,4 C 31,8 km/h (5 Bft) 98,15 %
11.02.2016 03:00 2,2 C 82 % 1004,4 hPa 0,0 l/m 21,8 km/h (4 Bft) W-SW 0,00 h 0,051 mm 0,0 UV-I 0 W/m -0,5 C -7,4 C 31,2 km/h (5 Bft) 97,79 %
11.02.2016 04:00 1,6 C 88 % 1005,0 hPa 0,0 l/m 20,4 km/h (4 Bft) SW 0,00 h 0,025 mm 0,0 UV-I 0 W/m -0,1 C -7,6 C 28,4 km/h (4 Bft) 98,02 %
11.02.2016 05:00 2,0 C 84 % 1005,4 hPa 0,0 l/m 20,7 km/h (4 Bft) W-SW 0,00 h 0,026 mm 0,0 UV-I 0 W/m -0,4 C -7,1 C 29,6 km/h (5 Bft) 98,04 %
11.02.2016 06:00 2,3 C 81 % 1005,6 hPa 0,0 l/m 22,3 km/h (4 Bft) W-SW 0,00 h 0,025 mm 0,0 UV-I 0 W/m -0,6 C -7,6 C 32,1 km/h (5 Bft) 98,51 %
11.02.2016 07:00 1,6 C 86 % 1006,4 hPa 0,0 l/m 20,9 km/h (4 Bft) W-SW 0,00 h 0,026 mm 0,0 UV-I 9 W/m -0,4 C -7,8 C 29,3 km/h (5 Bft) 97,42 %
11.02.2016 08:00 1,5 C 88 % 1006,8 hPa 0,2 l/m 20,1 km/h (4 Bft) W-SW 0,00 h 0,025 mm 0,0 UV-I 48 W/m -0,2 C -7,7 C 28,3 km/h (4 Bft) 98,49 %
11.02.2016 09:00 2,2 C 85 % 1007,3 hPa 0,0 l/m 21,1 km/h (4 Bft) W-SW 0,07 h 0,025 mm 0,0 UV-I 111 W/m -0,0 C -7,1 C 30,1 km/h (5 Bft) 97,17 %
11.02.2016 10:00 2,0 C 88 % 1008,1 hPa 0,0 l/m 17,7 km/h (3 Bft) W-SW 0,00 h 0,077 mm 0,5 UV-I 107 W/m 0,2 C -5,8 C 24,9 km/h (4 Bft) 99,15 %
11.02.2016 11:00 2,3 C 87 % 1008,4 hPa 0,0 l/m 19,0 km/h (3 Bft) SW 0,02 h 0,050 mm 0,6 UV-I 130 W/m 0,4 C -6,1 C 27,6 km/h (4 Bft) 97,42 %
11.02.2016 12:00 3,0 C 84 % 1008,2 hPa 0,0 l/m 18,2 km/h (3 Bft) SW 0,00 h 0,077 mm 0,6 UV-I 142 W/m 0,5 C -4,9 C 25,6 km/h (4 Bft) 98,94 %
11.02.2016 13:00 2,5 C 88 % 1008,0 hPa 0,0 l/m 15,4 km/h (3 Bft) W-SW 0,00 h 0,076 mm 0,5 UV-I 105 W/m 0,7 C -4,0 C 21,6 km/h (4 Bft) 97,92 %
11.02.2016 14:00 3,1 C 87 % 1007,7 hPa 0,0 l/m 8,7 km/h (2 Bft) W 0,47 h 0,051 mm 0,6 UV-I 232 W/m 1,2 C 0,9 C 12,9 km/h (3 Bft) 98,67 %
11.02.2016 15:00 4,7 C 81 % 1007,5 hPa 0,0 l/m 3,6 km/h (1 Bft) W-SW 0,73 h 0,101 mm 0,5 UV-I 194 W/m 1,7 C 4,7 C 5,6 km/h (1 Bft) 98,21 %
11.02.2016 16:00 4,9 C 79 % 1007,3 hPa 0,0 l/m 0,9 km/h (0 Bft) N-NW 0,37 h 0,076 mm 0,0 UV-I 60 W/m 1,6 C 4,9 C 1,9 km/h (1 Bft) 98,65 %
11.02.2016 17:00 2,9 C 85 % 1007,2 hPa 0,0 l/m 2,5 km/h (1 Bft) O-NO 0,03 h 0,026 mm 0,0 UV-I 9 W/m 0,7 C 2,9 C 3,6 km/h (1 Bft) 98,25 %
11.02.2016 18:00 1,0 C 91 % 1007,5 hPa 0,0 l/m 1,7 km/h (1 Bft) O-NO 0,00 h 0,000 mm 0,0 UV-I 0 W/m -0,3 C 1,0 C 2,9 km/h (1 Bft) 99,31 %
11.02.2016 19:00 0,1 C 94 % 1007,6 hPa 0,0 l/m 1,6 km/h (1 Bft) O-SO 0,00 h 0,000 mm 0,0 UV-I 0 W/m -0,8 C 0,1 C 2,7 km/h (1 Bft) 97,70 %
11.02.2016 20:00 -0,2 C 92 % 1007,3 hPa 0,0 l/m 2,1 km/h (1 Bft) S 0,00 h 0,000 mm 0,0 UV-I 0 W/m -1,3 C -0,2 C 3,4 km/h (1 Bft) 99,00 %
11.02.2016 21:00 -0,8 C 94 % 1007,4 hPa 0,0 l/m 1,6 km/h (1 Bft) NO 0,00 h 0,000 mm 0,0 UV-I 0 W/m -1,6 C -0,8 C 2,4 km/h (1 Bft) 97,89 %
11.02.2016 22:00 -1,2 C 95 % 1007,4 hPa 0,0 l/m 0,8 km/h (0 Bft) NO 0,00 h 0,000 mm 0,0 UV-I 0 W/m -1,9 C -1,2 C 1,7 km/h (1 Bft) 98,94 %
11.02.2016 23:00 -1,7 C 96 % 1007,3 hPa 0,0 l/m 1,6 km/h (1 Bft) SO 0,00 h 0,000 mm 0,0 UV-I 0 W/m -2,3 C -1,7 C 2,6 km/h (1 Bft) 98,27 %
12.02.2016 00:00 -1,9 C 96 % 1007,2 hPa 0,0 l/m 0,3 km/h (0 Bft) SO 0,00 h 0,000 mm 0,0 UV-I 0 W/m -2,5 C -1,9 C 0,7 km/h (0 Bft) 99,28 %
12.02.2016 01:00 -2,3 C 96 % 1007,0 hPa 0,0 l/m 0,5 km/h (0 Bft) SO 0,00 h 0,000 mm 0,0 UV-I 0 W/m -2,8 C -2,3 C 1,0 km/h (0 Bft) 98,53 %
12.02.2016 02:00 -2,8 C 96 % 1007,1 hPa 0,0 l/m 0,5 km/h (0 Bft) SO 0,00 h 0,000 mm 0,0 UV-I 0 W/m -3,3 C -2,8 C 0,9 km/h (0 Bft) 98,72 %
12.02.2016 03:00 -3,0 C 97 % 1006,9 hPa 0,0 l/m 0,7 km/h (0 Bft) SO 0,00 h 0,000 mm 0,0 UV-I 0 W/m -3,5 C -3,0 C 1,3 km/h (1 Bft) 98,59 %
12.02.2016 04:00 -2,9 C 97 % 1006,9 hPa 0,0 l/m 1,5 km/h (1 Bft) SO 0,00 h 0,000 mm 0,0 UV-I 0 W/m -3,4 C -2,9 C 2,4 km/h (1 Bft) 98,69 %
12.02.2016 05:00 -3,3 C 97 % 1007,0 hPa 0,0 l/m 2,1 km/h (1 Bft) SW 0,00 h 0,000 mm 0,0 UV-I 0 W/m -3,7 C -3,3 C 3,3 km/h (1 Bft) 98,97 %
12.02.2016 06:00 -3,3 C 97 % 1006,9 hPa 0,0 l/m 0,8 km/h (0 Bft) W 0,00 h 0,000 mm 0,0 UV-I 0 W/m -3,7 C -3,3 C 1,7 km/h (1 Bft) 98,22 %
12.02.2016 07:00 -3,2 C 97 % 1006,8 hPa 0,0 l/m 1,1 km/h (0 Bft) S-SO 0,00 h 0,000 mm 0,0 UV-I 16 W/m -3,6 C -3,2 C 2,4 km/h (1 Bft) 99,22 %
12.02.2016 08:00 -2,9 C 97 % 1006,5 hPa 0,0 l/m 0,7 km/h (0 Bft) S-SO 0,00 h 0,000 mm 0,0 UV-I 70 W/m -3,3 C -2,9 C 1,3 km/h (1 Bft) 98,08 %
12.02.2016 09:00 -2,0 C 97 % 1006,2 hPa 0,2 l/m 0,3 km/h (0 Bft) S-SO 0,57 h 0,025 mm 0,5 UV-I 181 W/m -2,5 C -2,0 C 1,0 km/h (0 Bft) 98,44 %
12.02.2016 10:00 -1,8 C 97 % 1005,7 hPa 0,0 l/m 1,4 km/h (1 Bft) N-NW 0,20 h 0,051 mm 0,6 UV-I 192 W/m -2,2 C -1,8 C 2,9 km/h (1 Bft) 98,98 %
12.02.2016 11:00 -1,3 C 97 % 1005,2 hPa 0,0 l/m 4,1 km/h (1 Bft) NO 0,08 h 0,051 mm 0,7 UV-I 222 W/m -1,7 C -1,3 C 5,8 km/h (2 Bft) 97,58 %
12.02.2016 12:00 -0,9 C 98 % 1004,1 hPa 0,0 l/m 3,6 km/h (1 Bft) N-NO 0,00 h 0,076 mm 0,7 UV-I 204 W/m -1,2 C -0,9 C 5,9 km/h (2 Bft) 98,95 %
12.02.2016 13:00 -0,5 C 98 % 1003,2 hPa 0,0 l/m 4,0 km/h (1 Bft) O-NO 0,15 h 0,076 mm 0,7 UV-I 199 W/m -0,8 C -0,9 C 6,2 km/h (2 Bft) 98,30 %
12.02.2016 14:00 1,0 C 96 % 1002,0 hPa 0,0 l/m 5,5 km/h (1 Bft) N-NO 0,88 h 0,077 mm 0,7 UV-I 356 W/m 0,5 C 0,6 C 8,6 km/h (2 Bft) 98,74 %
12.02.2016 15:00 3,0 C 86 % 1000,9 hPa 0,0 l/m 8,8 km/h (2 Bft) NO 1,00 h 0,127 mm 0,5 UV-I 216 W/m 0,8 C 0,7 C 12,5 km/h (3 Bft) 98,35 %
12.02.2016 16:00 3,0 C 83 % 999,8 hPa 0,0 l/m 7,6 km/h (2 Bft) NO 0,40 h 0,101 mm 0,0 UV-I 56 W/m 0,3 C 1,8 C 10,6 km/h (2 Bft) 98,86 %
12.02.2016 17:00 1,9 C 87 % 998,8 hPa 0,0 l/m 5,9 km/h (2 Bft) NO 0,02 h 0,026 mm 0,0 UV-I 8 W/m -0,0 C 1,4 C 8,2 km/h (2 Bft) 98,33 %
12.02.2016 18:00 1,9 C 87 % 997,7 hPa 0,0 l/m 13,2 km/h (3 Bft) O-NO 0,00 h 0,000 mm 0,0 UV-I 0 W/m -0,1 C -3,3 C 18,2 km/h (3 Bft) 98,93 %
12.02.2016 19:00 1,7 C 87 % 996,8 hPa 0,0 l/m 19,0 km/h (3 Bft) O-NO 0,00 h 0,025 mm 0,0 UV-I 0 W/m -0,2 C -7,0 C 24,9 km/h (4 Bft) 98,43 %
12.02.2016 20:00 1,2 C 88 % 996,5 hPa 0,0 l/m 16,3 km/h (3 Bft) O-NO 0,00 h 0,025 mm 0,0 UV-I 0 W/m -0,6 C -6,3 C 21,2 km/h (4 Bft) 98,82 %
12.02.2016 21:00 0,8 C 89 % 996,1 hPa 0,0 l/m 12,2 km/h (2 Bft) O-NO 0,00 h 0,026 mm 0,0 UV-I 0 W/m -0,8 C -4,0 C 16,9 km/h (3 Bft) 98,04 %
12.02.2016 22:00 0,4 C 90 % 996,0 hPa 0,0 l/m 6,5 km/h (2 Bft) O-NO 0,00 h 0,000 mm 0,0 UV-I 0 W/m -1,0 C -1,0 C 9,7 km/h (2 Bft) 99,14 %
12.02.2016 23:00 -0,7 C 93 % 995,9 hPa 0,0 l/m 0,3 km/h (0 Bft) O-NO 0,00 h 0,000 mm 0,0 UV-I 0 W/m -1,7 C -0,7 C 0,8 km/h (0 Bft) 97,72 %
13.02.2016 00:00 -1,5 C 95 % 995,8 hPa 0,0 l/m 1,0 km/h (0 Bft) S-SO 0,00 h 0,000 mm 0,0 UV-I 0 W/m -2,1 C -1,5 C 1,7 km/h (1 Bft) 99,30 %
13.02.2016 01:00 -1,0 C 95 % 995,7 hPa 0,0 l/m 0,4 km/h (0 Bft) S-SO 0,00 h 0,000 mm 0,0 UV-I 0 W/m -1,7 C -1,0 C 0,8 km/h (0 Bft) 97,48 %
13.02.2016 02:00 -0,9 C 95 % 995,3 hPa 0,0 l/m 1,4 km/h (1 Bft) O 0,00 h 0,000 mm 0,0 UV-I 0 W/m -1,5 C -0,9 C 2,3 km/h (1 Bft) 99,04 %
13.02.2016 03:00 -0,7 C 95 % 995,1 hPa 0,0 l/m 3,3 km/h (1 Bft) O-NO 0,00 h 0,000 mm 0,0 UV-I 0 W/m -1,5 C -0,7 C 5,1 km/h (1 Bft) 97,61 %
13.02.2016 04:00 -0,4 C 94 % 995,4 hPa 0,0 l/m 5,1 km/h (1 Bft) O-NO 0,00 h 0,000 mm 0,0 UV-I 0 W/m -1,3 C -0,5 C 7,1 km/h (2 Bft) 98,98 %
13.02.2016 05:00 -0,2 C 93 % 995,7 hPa 0,0 l/m 7,9 km/h (2 Bft) O-NO 0,00 h 0,000 mm 0,0 UV-I 0 W/m -1,1 C -1,9 C 11,1 km/h (2 Bft) 97,87 %
13.02.2016 06:00 -0,1 C 94 % 995,8 hPa 0,0 l/m 7,2 km/h (2 Bft) NO 0,00 h 0,000 mm 0,0 UV-I 0 W/m -1,0 C -1,4 C 9,8 km/h (2 Bft) 99,12 %
13.02.2016 07:00 -0,2 C 95 % 996,2 hPa 0,0 l/m 3,0 km/h (1 Bft) NO 0,00 h 0,000 mm 0,0 UV-I 16 W/m -1,0 C -0,2 C 4,3 km/h (1 Bft) 97,53 %
13.02.2016 08:00 -0,1 C 95 % 996,3 hPa 0,0 l/m 1,1 km/h (1 Bft) O-NO 0,05 h 0,000 mm 0,0 UV-I 65 W/m -0,8 C -0,1 C 2,2 km/h (1 Bft) 99,28 %
13.02.2016 09:00 0,4 C 94 % 996,3 hPa 0,0 l/m 2,3 km/h (1 Bft) O-NO 0,00 h 0,025 mm 0,4 UV-I 110 W/m -0,4 C 0,4 C 3,7 km/h (1 Bft) 97,94 %
13.02.2016 10:00 1,1 C 93 % 996,5 hPa 0,0 l/m 1,9 km/h (1 Bft) NO 0,37 h 0,051 mm 0,7 UV-I 197 W/m 0,0 C 1,1 C 3,2 km/h (1 Bft) 99,21 %
13.02.2016 11:00 2,1 C 90 % 996,4 hPa 0,0 l/m 1,6 km/h (1 Bft) NO 0,15 h 0,076 mm 0,8 UV-I 230 W/m 0,6 C 2,1 C 3,0 km/h (1 Bft) 98,09 %
13.02.2016 12:00 3,5 C 86 % 995,6 hPa 0,0 l/m 2,3 km/h (1 Bft) NO 0,97 h 0,102 mm 1,2 UV-I 414 W/m 1,4 C 3,5 C 3,8 km/h (1 Bft) 99,42 %
13.02.2016 13:00 4,8 C 83 % 994,7 hPa 0,0 l/m 2,5 km/h (1 Bft) NO 0,48 h 0,152 mm 0,8 UV-I 270 W/m 2,2 C 4,8 C 4,2 km/h (1 Bft) 98,02 %
13.02.2016 14:00 6,0 C 80 % 993,7 hPa 0,0 l/m 3,9 km/h (1 Bft) NO 0,98 h 0,127 mm 0,7 UV-I 330 W/m 2,9 C 5,9 C 5,7 km/h (1 Bft) 99,13 %
13.02.2016 15:00 5,9 C 81 % 993,3 hPa 0,0 l/m 6,2 km/h (2 Bft) NO 0,35 h 0,153 mm 0,0 UV-I 146 W/m 2,9 C 5,4 C 8,4 km/h (2 Bft) 98,72 %
13.02.2016 16:00 5,3 C 83 % 992,8 hPa 0,0 l/m 9,3 km/h (2 Bft) NO 0,27 h 0,076 mm 0,0 UV-I 64 W/m 2,7 C 3,0 C 13,2 km/h (3 Bft) 98,02 %
13.02.2016 17:00 4,3 C 87 % 992,1 hPa 0,0 l/m 8,6 km/h (2 Bft) O-NO 0,03 h 0,051 mm 0,0 UV-I 9 W/m 2,3 C 2,4 C 12,2 km/h (2 Bft) 98,78 %
13.02.2016 18:00 3,7 C 88 % 992,1 hPa 0,0 l/m 5,6 km/h (1 Bft) O-NO 0,00 h 0,000 mm 0,0 UV-I 0 W/m 2,0 C 3,3 C 8,1 km/h (2 Bft) 98,43 %
13.02.2016 19:00 3,4 C 89 % 991,8 hPa 0,0 l/m 4,2 km/h (1 Bft) O-NO 0,00 h 0,000 mm 0,0 UV-I 0 W/m 1,8 C 3,3 C 5,7 km/h (1 Bft) 98,96 %
13.02.2016 20:00 2,7 C 90 % 991,2 hPa 0,0 l/m 3,8 km/h (1 Bft) NO 0,00 h 0,000 mm 0,0 UV-I 0 W/m 1,3 C 2,6 C 5,2 km/h (1 Bft) 99,06 %
13.02.2016 21:00 1,7 C 92 % 991,2 hPa 0,0 l/m 3,0 km/h (1 Bft) O-NO 0,00 h 0,000 mm 0,0 UV-I 0 W/m 0,6 C 1,6 C 4,3 km/h (1 Bft) 98,44 %
13.02.2016 22:00 0,7 C 94 % 990,8 hPa 0,0 l/m 1,1 km/h (0 Bft) S-SW 0,00 h 0,000 mm 0,0 UV-I 0 W/m -0,1 C 0,7 C 1,9 km/h (1 Bft) 99,11 %
13.02.2016 23:00 -0,2 C 96 % 991,4 hPa 0,0 l/m 3,1 km/h (1 Bft) SW 0,00 h 0,000 mm 0,0 UV-I 0 W/m -0,8 C -0,2 C 4,0 km/h (1 Bft) 97,73 %
14.02.2016 00:00 0,4 C 96 % 991,6 hPa 0,0 l/m 4,4 km/h (1 Bft) SW 0,00 h 0,000 mm 0,0 UV-I 0 W/m -0,2 C -0,0 C 6,2 km/h (2 Bft) 99,43 %
14.02.2016 01:00 0,2 C 96 % 991,1 hPa 0,0 l/m 3,4 km/h (1 Bft) S-SO 0,00 h 0,000 mm 0,0 UV-I 0 W/m -0,4 C 0,1 C 5,7 km/h (1 Bft) 97,77 %
14.02.2016 02:00 -0,3 C 96 % 990,9 hPa 0,0 l/m 1,9 km/h (1 Bft) O-NO 0,00 h 0,000 mm 0,0 UV-I 0 W/m -0,8 C -0,4 C 3,2 km/h (1 Bft) 99,36 %
14.02.2016 03:00 -0,6 C 97 % 991,3 hPa 0,0 l/m 3,3 km/h (1 Bft) NO 0,00 h 0,000 mm 0,0 UV-I 0 W/m -1,0 C -0,7 C 5,0 km/h (1 Bft) 97,96 %
14.02.2016 04:00 -0,5 C 97 % 991,3 hPa 0,0 l/m 3,8 km/h (1 Bft) S-SO 0,00 h 0,000 mm 0,0 UV-I 0 W/m -0,9 C -0,6 C 6,4 km/h (2 Bft) 99,34 %
14.02.2016 05:00 -0,9 C 97 % 991,8 hPa 0,0 l/m 1,2 km/h (1 Bft) S-SW 0,00 h 0,000 mm 0,0 UV-I 0 W/m -1,3 C -0,9 C 2,1 km/h (1 Bft) 97,85 %
14.02.2016 06:00 -1,6 C 97 % 991,7 hPa 0,0 l/m 2,1 km/h (1 Bft) O-NO 0,00 h 0,000 mm 0,0 UV-I 0 W/m -2,0 C -1,6 C 3,2 km/h (1 Bft) 98,83 %
14.02.2016 07:00 -1,5 C 98 % 991,7 hPa 0,0 l/m 2,8 km/h (1 Bft) NO 0,00 h 0,000 mm 0,0 UV-I 9 W/m -1,8 C -1,5 C 4,2 km/h (1 Bft) 98,34 %
14.02.2016 08:00 -1,0 C 98 % 991,7 hPa 0,0 l/m 6,5 km/h (2 Bft) NO 0,00 h 0,000 mm 0,0 UV-I 65 W/m -1,3 C -2,1 C 8,7 km/h (2 Bft) 99,32 %
14.02.2016 09:00 -0,5 C 98 % 991,8 hPa 0,0 l/m 3,1 km/h (1 Bft) S-SO 0,08 h 0,025 mm 0,5 UV-I 129 W/m -0,8 C -0,8 C 5,1 km/h (1 Bft) 98,63 %
14.02.2016 10:00 0,1 C 98 % 991,7 hPa 0,0 l/m 2,4 km/h (1 Bft) S-SO 0,43 h 0,051 mm 0,8 UV-I 226 W/m -0,2 C 0,1 C 4,3 km/h (1 Bft) 99,06 %
14.02.2016 11:00 1,8 C 96 % 991,2 hPa 0,0 l/m 2,7 km/h (1 Bft) S-SW 1,00 h 0,076 mm 1,3 UV-I 417 W/m 1,3 C 1,8 C 4,4 km/h (1 Bft) 98,05 %
14.02.2016 12:00 4,6 C 86 % 990,3 hPa 0,0 l/m 1,4 km/h (1 Bft) SW 0,63 h 0,153 mm 1,2 UV-I 293 W/m 2,4 C 4,6 C 2,9 km/h (1 Bft) 98,98 %
14.02.2016 13:00 6,0 C 78 % 989,5 hPa 0,0 l/m 5,3 km/h (1 Bft) N-NO 0,00 h 0,127 mm 0,8 UV-I 200 W/m 2,4 C 5,1 C 7,7 km/h (2 Bft) 98,37 %
14.02.2016 14:00 5,1 C 81 % 989,5 hPa 0,0 l/m 13,0 km/h (3 Bft) O-NO 0,00 h 0,101 mm 0,4 UV-I 99 W/m 2,2 C 0,5 C 17,4 km/h (3 Bft) 98,82 %
14.02.2016 15:00 4,2 C 88 % 989,4 hPa 0,0 l/m 15,0 km/h (3 Bft) O-NO 0,00 h 0,051 mm 0,0 UV-I 52 W/m 2,4 C -1,8 C 19,5 km/h (3 Bft) 98,36 %
14.02.2016 16:00 3,8 C 91 % 989,3 hPa 0,0 l/m 9,5 km/h (2 Bft) O-NO 0,00 h 0,026 mm 0,0 UV-I 22 W/m 2,4 C 1,0 C 13,0 km/h (3 Bft) 99,16 %
14.02.2016 17:00 3,6 C 93 % 989,3 hPa 0,0 l/m 7,1 km/h (2 Bft) O-NO 0,00 h 0,025 mm 0,0 UV-I 8 W/m 2,6 C 1,7 C 10,0 km/h (2 Bft) 98,13 %
14.02.2016 18:00 3,1 C 94 % 990,7 hPa 0,0 l/m 1,1 km/h (1 Bft) W-SW 0,00 h 0,000 mm 0,0 UV-I 0 W/m 2,3 C 3,1 C 2,4 km/h (1 Bft) 99,21 %
14.02.2016 19:00 3,1 C 95 % 992,3 hPa 0,0 l/m 4,5 km/h (1 Bft) W-SW 0,00 h 0,000 mm 0,0 UV-I 0 W/m 2,3 C 2,9 C 6,8 km/h (2 Bft) 98,08 %
14.02.2016 20:00 3,2 C 94 % 993,5 hPa 0,0 l/m 9,5 km/h (2 Bft) S-SW 0,00 h 0,000 mm 0,0 UV-I 0 W/m 2,3 C 0,3 C 12,5 km/h (3 Bft) 99,26 %
14.02.2016 21:00 3,8 C 90 % 995,0 hPa 0,0 l/m 11,0 km/h (2 Bft) SW 0,00 h 0,000 mm 0,0 UV-I 0 W/m 2,4 C 0,2 C 15,7 km/h (3 Bft) 97,26 %
14.02.2016 22:00 4,8 C 87 % 996,3 hPa 0,2 l/m 9,6 km/h (2 Bft) SW 0,00 h 0,000 mm 0,0 UV-I 0 W/m 2,9 C 2,3 C 13,7 km/h (3 Bft) 98,66 %
14.02.2016 23:00 5,0 C 88 % 997,5 hPa 0,0 l/m 9,5 km/h (2 Bft) W-SW 0,00 h 0,000 mm 0,0 UV-I 0 W/m 3,2 C 2,5 C 13,3 km/h (3 Bft) 97,44 %
Min-Datum _ 12.02.16 09.02.16 14.02.16 - 09.02.16 - - - - - 12.02.16 10.02.16 09.02.16 08.02.16
_ Min-Zeit 05:39 22:46 17:08 - 01:23 - - - - - 05:39 21:10 01:23 23:49
Minimum _ -3,4 C 44 % 988,7 hPa - 0,0 km/h (0 Bft) - - - - - -3,8 C -10,8 C 0,0 km/h (0 Bft) 83,33 %
Max-Datum _ 09.02.16 12.02.16 08.02.16 10.02.16 09.02.16 - 08.02.16 09.02.16 14.02.16 13.02.16 09.02.16 09.02.16 09.02.16 08.02.16
_ Max-Zeit 22:29 10:57 02:55 04:08 23:58 - 10:20 13:01 11:48 12:24 14:09 22:48 23:52 00:10
Maximum _ 13,1 C 98 % 1014,2 hPa 2,6 l/m 41,2 km/h
W (6 Bft)
- 0,17 h 0,254 mm 1,6 UV-I 633 W/m 7,5 C 13,1 C 59,5 km/h
W (7 Bft)
100,00 %
Durchschnitt _ 3,3 C 87 % 1000,2 hPa #15,0 l/m 8,6 km/h (2 Bft) O-NO #21:15 h #6,452 mm 0,7 UV-I 143 W/m 1,3 C 0,7 C 12,7 km/h (3 Bft) 98,45 %